sensor_id;sensor_type;location;lat;lon;timestamp;P1;durP1;ratioP1;P2;durP2;ratioP2
16075;SDS011;8142;48.242;11.644;2023-05-10T00:00:08;1.40;;;1.30;;
16075;SDS011;8142;48.242;11.644;2023-05-10T00:02:34;2.90;;;1.43;;
16075;SDS011;8142;48.242;11.644;2023-05-10T00:05:01;1.97;;;1.40;;
16075;SDS011;8142;48.242;11.644;2023-05-10T00:07:27;1.63;;;1.40;;
16075;SDS011;8142;48.242;11.644;2023-05-10T00:09:53;2.67;;;1.50;;
16075;SDS011;8142;48.242;11.644;2023-05-10T00:12:19;2.00;;;1.40;;
16075;SDS011;8142;48.242;11.644;2023-05-10T00:14:45;2.70;;;1.43;;
16075;SDS011;8142;48.242;11.644;2023-05-10T00:17:11;1.57;;;1.27;;
16075;SDS011;8142;48.242;11.644;2023-05-10T00:19:36;2.50;;;1.30;;
16075;SDS011;8142;48.242;11.644;2023-05-10T00:22:02;1.30;;;1.20;;
16075;SDS011;8142;48.242;11.644;2023-05-10T00:24:28;2.60;;;1.37;;
16075;SDS011;8142;48.242;11.644;2023-05-10T00:26:54;1.40;;;1.30;;
16075;SDS011;8142;48.242;11.644;2023-05-10T00:29:20;1.50;;;1.40;;
16075;SDS011;8142;48.242;11.644;2023-05-10T00:31:46;1.70;;;1.30;;
16075;SDS011;8142;48.242;11.644;2023-05-10T00:34:11;1.30;;;1.20;;
16075;SDS011;8142;48.242;11.644;2023-05-10T00:36:37;1.23;;;1.17;;
16075;SDS011;8142;48.242;11.644;2023-05-10T00:39:03;3.00;;;1.40;;
16075;SDS011;8142;48.242;11.644;2023-05-10T00:41:32;1.60;;;1.33;;
16075;SDS011;8142;48.242;11.644;2023-05-10T00:43:58;2.03;;;1.40;;
16075;SDS011;8142;48.242;11.644;2023-05-10T00:46:24;1.27;;;1.17;;
16075;SDS011;8142;48.242;11.644;2023-05-10T00:48:51;1.50;;;1.40;;
16075;SDS011;8142;48.242;11.644;2023-05-10T00:51:17;1.20;;;1.10;;
16075;SDS011;8142;48.242;11.644;2023-05-10T00:53:44;1.53;;;1.30;;
16075;SDS011;8142;48.242;11.644;2023-05-10T00:56:11;1.33;;;1.23;;
16075;SDS011;8142;48.242;11.644;2023-05-10T00:58:41;1.60;;;1.30;;
16075;SDS011;8142;48.242;11.644;2023-05-10T01:01:07;1.87;;;1.30;;
16075;SDS011;8142;48.242;11.644;2023-05-10T01:03:34;2.00;;;1.20;;
16075;SDS011;8142;48.242;11.644;2023-05-10T01:06:01;1.10;;;1.00;;
16075;SDS011;8142;48.242;11.644;2023-05-10T01:08:27;1.70;;;1.30;;
16075;SDS011;8142;48.242;11.644;2023-05-10T01:10:53;1.53;;;1.30;;
16075;SDS011;8142;48.242;11.644;2023-05-10T01:13:36;1.07;;;1.07;;
16075;SDS011;8142;48.242;11.644;2023-05-10T01:16:03;1.43;;;1.00;;
16075;SDS011;8142;48.242;11.644;2023-05-10T01:18:34;1.77;;;1.10;;
16075;SDS011;8142;48.242;11.644;2023-05-10T01:32:25;2.10;;;1.00;;
16075;SDS011;8142;48.242;11.644;2023-05-10T01:35:18;0.80;;;0.80;;
16075;SDS011;8142;48.242;11.644;2023-05-10T01:38:11;1.20;;;1.10;;
16075;SDS011;8142;48.242;11.644;2023-05-10T01:43:37;0.77;;;0.77;;
16075;SDS011;8142;48.242;11.644;2023-05-10T01:46:36;1.77;;;0.80;;
16075;SDS011;8142;48.242;11.644;2023-05-10T01:49:07;1.63;;;0.80;;
16075;SDS011;8142;48.242;11.644;2023-05-10T01:51:47;0.97;;;0.90;;
16075;SDS011;8142;48.242;11.644;2023-05-10T01:54:17;1.13;;;0.97;;
16075;SDS011;8142;48.242;11.644;2023-05-10T01:56:45;0.80;;;0.80;;
16075;SDS011;8142;48.242;11.644;2023-05-10T01:59:18;0.70;;;0.70;;
16075;SDS011;8142;48.242;11.644;2023-05-10T02:01:45;2.03;;;1.00;;
16075;SDS011;8142;48.242;11.644;2023-05-10T02:04:13;0.80;;;0.80;;
16075;SDS011;8142;48.242;11.644;2023-05-10T02:06:42;1.50;;;1.00;;
16075;SDS011;8142;48.242;11.644;2023-05-10T02:09:09;1.93;;;0.90;;
16075;SDS011;8142;48.242;11.644;2023-05-10T02:11:37;1.10;;;1.10;;
16075;SDS011;8142;48.242;11.644;2023-05-10T02:14:05;1.53;;;1.00;;
16075;SDS011;8142;48.242;11.644;2023-05-10T02:16:37;1.27;;;0.93;;
16075;SDS011;8142;48.242;11.644;2023-05-10T02:19:04;1.70;;;0.90;;
16075;SDS011;8142;48.242;11.644;2023-05-10T02:21:31;1.27;;;0.83;;
16075;SDS011;8142;48.242;11.644;2023-05-10T02:23:59;1.20;;;0.90;;
16075;SDS011;8142;48.242;11.644;2023-05-10T02:26:26;0.60;;;0.60;;
16075;SDS011;8142;48.242;11.644;2023-05-10T02:28:54;0.90;;;0.90;;
16075;SDS011;8142;48.242;11.644;2023-05-10T02:31:22;0.80;;;0.80;;
16075;SDS011;8142;48.242;11.644;2023-05-10T02:33:48;1.17;;;0.60;;
16075;SDS011;8142;48.242;11.644;2023-05-10T02:36:15;0.93;;;0.67;;
16075;SDS011;8142;48.242;11.644;2023-05-10T02:38:42;0.70;;;0.70;;
16075;SDS011;8142;48.242;11.644;2023-05-10T02:41:09;1.43;;;0.60;;
16075;SDS011;8142;48.242;11.644;2023-05-10T02:43:36;0.97;;;0.70;;
16075;SDS011;8142;48.242;11.644;2023-05-10T02:46:05;1.20;;;0.90;;
16075;SDS011;8142;48.242;11.644;2023-05-10T02:48:30;1.20;;;0.70;;
16075;SDS011;8142;48.242;11.644;2023-05-10T02:50:59;0.70;;;0.70;;
16075;SDS011;8142;48.242;11.644;2023-05-10T02:53:36;1.87;;;0.83;;
16075;SDS011;8142;48.242;11.644;2023-05-10T02:56:09;1.50;;;0.87;;
16075;SDS011;8142;48.242;11.644;2023-05-10T02:58:39;1.87;;;0.80;;
16075;SDS011;8142;48.242;11.644;2023-05-10T03:01:05;1.03;;;0.70;;
16075;SDS011;8142;48.242;11.644;2023-05-10T03:03:33;0.90;;;0.70;;
16075;SDS011;8142;48.242;11.644;2023-05-10T03:05:58;0.80;;;0.80;;
16075;SDS011;8142;48.242;11.644;2023-05-10T03:08:24;1.07;;;0.70;;
16075;SDS011;8142;48.242;11.644;2023-05-10T03:10:55;1.40;;;0.80;;
16075;SDS011;8142;48.242;11.644;2023-05-10T03:13:31;2.07;;;0.80;;
16075;SDS011;8142;48.242;11.644;2023-05-10T03:16:12;2.37;;;0.87;;
16075;SDS011;8142;48.242;11.644;2023-05-10T03:18:43;0.87;;;0.80;;
16075;SDS011;8142;48.242;11.644;2023-05-10T03:21:12;1.07;;;0.80;;
16075;SDS011;8142;48.242;11.644;2023-05-10T03:24:14;0.80;;;0.80;;
16075;SDS011;8142;48.242;11.644;2023-05-10T03:26:34;1.37;;;1.00;;
16075;SDS011;8142;48.242;11.644;2023-05-10T03:29:01;0.90;;;0.87;;
16075;SDS011;8142;48.242;11.644;2023-05-10T03:31:28;0.80;;;0.80;;
16075;SDS011;8142;48.242;11.644;2023-05-10T03:33:53;0.90;;;0.90;;
16075;SDS011;8142;48.242;11.644;2023-05-10T03:36:19;1.50;;;0.97;;
16075;SDS011;8142;48.242;11.644;2023-05-10T03:38:46;1.47;;;0.93;;
16075;SDS011;8142;48.242;11.644;2023-05-10T03:41:12;1.03;;;0.90;;
16075;SDS011;8142;48.242;11.644;2023-05-10T03:43:38;1.63;;;1.20;;
16075;SDS011;8142;48.242;11.644;2023-05-10T03:46:04;1.30;;;1.00;;
16075;SDS011;8142;48.242;11.644;2023-05-10T03:48:31;0.70;;;0.70;;
16075;SDS011;8142;48.242;11.644;2023-05-10T03:50:57;1.03;;;0.90;;
16075;SDS011;8142;48.242;11.644;2023-05-10T03:53:23;0.93;;;0.90;;
16075;SDS011;8142;48.242;11.644;2023-05-10T03:55:49;1.80;;;1.03;;
16075;SDS011;8142;48.242;11.644;2023-05-10T03:58:15;1.37;;;1.03;;
16075;SDS011;8142;48.242;11.644;2023-05-10T04:00:41;0.83;;;0.70;;
16075;SDS011;8142;48.242;11.644;2023-05-10T04:03:10;1.83;;;0.90;;
16075;SDS011;8142;48.242;11.644;2023-05-10T04:05:37;1.37;;;0.93;;
16075;SDS011;8142;48.242;11.644;2023-05-10T04:08:03;0.97;;;0.80;;
16075;SDS011;8142;48.242;11.644;2023-05-10T04:10:30;0.93;;;0.80;;
16075;SDS011;8142;48.242;11.644;2023-05-10T04:12:56;0.90;;;0.80;;
16075;SDS011;8142;48.242;11.644;2023-05-10T04:15:22;2.50;;;0.87;;
16075;SDS011;8142;48.242;11.644;2023-05-10T04:17:48;0.80;;;0.80;;
16075;SDS011;8142;48.242;11.644;2023-05-10T04:20:14;0.70;;;0.70;;
16075;SDS011;8142;48.242;11.644;2023-05-10T04:22:40;1.00;;;0.80;;
16075;SDS011;8142;48.242;11.644;2023-05-10T04:25:06;1.90;;;0.90;;
16075;SDS011;8142;48.242;11.644;2023-05-10T04:27:32;1.23;;;0.83;;
16075;SDS011;8142;48.242;11.644;2023-05-10T04:29:58;1.40;;;0.70;;
16075;SDS011;8142;48.242;11.644;2023-05-10T04:32:24;0.70;;;0.70;;
16075;SDS011;8142;48.242;11.644;2023-05-10T04:34:50;1.03;;;0.80;;
16075;SDS011;8142;48.242;11.644;2023-05-10T04:37:17;1.00;;;0.80;;
16075;SDS011;8142;48.242;11.644;2023-05-10T04:39:43;1.00;;;0.90;;
16075;SDS011;8142;48.242;11.644;2023-05-10T04:42:09;0.60;;;0.60;;
16075;SDS011;8142;48.242;11.644;2023-05-10T04:44:35;0.83;;;0.83;;
16075;SDS011;8142;48.242;11.644;2023-05-10T04:47:01;0.80;;;0.67;;
16075;SDS011;8142;48.242;11.644;2023-05-10T04:49:28;0.93;;;0.70;;
16075;SDS011;8142;48.242;11.644;2023-05-10T04:51:55;0.77;;;0.77;;
16075;SDS011;8142;48.242;11.644;2023-05-10T04:54:21;0.70;;;0.70;;
16075;SDS011;8142;48.242;11.644;2023-05-10T04:56:47;0.70;;;0.70;;
16075;SDS011;8142;48.242;11.644;2023-05-10T04:59:12;0.97;;;0.80;;
16075;SDS011;8142;48.242;11.644;2023-05-10T05:01:39;0.80;;;0.80;;
16075;SDS011;8142;48.242;11.644;2023-05-10T05:04:05;1.00;;;1.00;;
16075;SDS011;8142;48.242;11.644;2023-05-10T05:06:32;1.23;;;0.77;;
16075;SDS011;8142;48.242;11.644;2023-05-10T05:08:57;0.70;;;0.70;;
16075;SDS011;8142;48.242;11.644;2023-05-10T05:11:23;1.07;;;0.70;;
16075;SDS011;8142;48.242;11.644;2023-05-10T05:13:50;0.80;;;0.80;;
16075;SDS011;8142;48.242;11.644;2023-05-10T05:16:16;1.03;;;0.70;;
16075;SDS011;8142;48.242;11.644;2023-05-10T05:18:42;0.63;;;0.50;;
16075;SDS011;8142;48.242;11.644;2023-05-10T05:21:15;0.50;;;0.40;;
16075;SDS011;8142;48.242;11.644;2023-05-10T05:23:42;0.77;;;0.70;;
16075;SDS011;8142;48.242;11.644;2023-05-10T05:26:08;0.97;;;0.40;;
16075;SDS011;8142;48.242;11.644;2023-05-10T05:28:34;1.50;;;0.60;;
16075;SDS011;8142;48.242;11.644;2023-05-10T05:31:05;0.60;;;0.60;;
16075;SDS011;8142;48.242;11.644;2023-05-10T05:33:32;1.07;;;0.53;;
16075;SDS011;8142;48.242;11.644;2023-05-10T05:36:04;0.97;;;0.50;;
16075;SDS011;8142;48.242;11.644;2023-05-10T05:38:31;1.30;;;0.40;;
16075;SDS011;8142;48.242;11.644;2023-05-10T05:40:57;0.40;;;0.40;;
16075;SDS011;8142;48.242;11.644;2023-05-10T05:43:23;0.50;;;0.50;;
16075;SDS011;8142;48.242;11.644;2023-05-10T05:45:49;0.77;;;0.70;;
16075;SDS011;8142;48.242;11.644;2023-05-10T05:48:15;2.10;;;0.70;;
16075;SDS011;8142;48.242;11.644;2023-05-10T05:50:41;0.60;;;0.60;;
16075;SDS011;8142;48.242;11.644;2023-05-10T05:53:06;0.60;;;0.60;;
16075;SDS011;8142;48.242;11.644;2023-05-10T05:55:33;1.80;;;0.73;;
16075;SDS011;8142;48.242;11.644;2023-05-10T05:57:59;0.87;;;0.83;;
16075;SDS011;8142;48.242;11.644;2023-05-10T06:00:25;1.00;;;0.80;;
16075;SDS011;8142;48.242;11.644;2023-05-10T06:02:51;1.23;;;0.77;;
16075;SDS011;8142;48.242;11.644;2023-05-10T06:05:17;1.53;;;0.80;;
16075;SDS011;8142;48.242;11.644;2023-05-10T06:07:43;3.07;;;0.90;;
16075;SDS011;8142;48.242;11.644;2023-05-10T06:10:09;0.97;;;0.87;;
16075;SDS011;8142;48.242;11.644;2023-05-10T06:12:35;1.33;;;0.90;;
16075;SDS011;8142;48.242;11.644;2023-05-10T06:15:01;1.50;;;0.83;;
16075;SDS011;8142;48.242;11.644;2023-05-10T06:17:28;8.23;;;1.00;;
16075;SDS011;8142;48.242;11.644;2023-05-10T06:19:54;2.93;;;1.10;;
16075;SDS011;8142;48.242;11.644;2023-05-10T06:22:21;2.17;;;1.10;;
16075;SDS011;8142;48.242;11.644;2023-05-10T06:24:50;1.83;;;0.90;;
16075;SDS011;8142;48.242;11.644;2023-05-10T06:27:16;1.00;;;1.00;;
16075;SDS011;8142;48.242;11.644;2023-05-10T06:29:42;1.30;;;1.20;;
16075;SDS011;8142;48.242;11.644;2023-05-10T06:32:08;1.50;;;1.17;;
16075;SDS011;8142;48.242;11.644;2023-05-10T06:34:34;1.30;;;1.20;;
16075;SDS011;8142;48.242;11.644;2023-05-10T06:37:00;1.50;;;1.10;;
16075;SDS011;8142;48.242;11.644;2023-05-10T06:39:25;1.40;;;1.30;;
16075;SDS011;8142;48.242;11.644;2023-05-10T06:41:51;3.17;;;1.33;;
16075;SDS011;8142;48.242;11.644;2023-05-10T06:44:17;1.70;;;1.17;;
16075;SDS011;8142;48.242;11.644;2023-05-10T06:46:43;1.87;;;1.30;;
16075;SDS011;8142;48.242;11.644;2023-05-10T06:49:09;3.67;;;1.47;;
16075;SDS011;8142;48.242;11.644;2023-05-10T06:51:35;3.40;;;1.43;;
16075;SDS011;8142;48.242;11.644;2023-05-10T06:54:00;3.97;;;1.30;;
16075;SDS011;8142;48.242;11.644;2023-05-10T06:56:27;3.43;;;1.70;;
16075;SDS011;8142;48.242;11.644;2023-05-10T06:58:53;3.03;;;1.67;;
16075;SDS011;8142;48.242;11.644;2023-05-10T07:01:18;1.50;;;1.40;;
16075;SDS011;8142;48.242;11.644;2023-05-10T07:03:44;3.00;;;1.40;;
16075;SDS011;8142;48.242;11.644;2023-05-10T07:06:10;1.70;;;1.57;;
16075;SDS011;8142;48.242;11.644;2023-05-10T07:08:37;2.07;;;1.47;;
16075;SDS011;8142;48.242;11.644;2023-05-10T07:11:03;5.00;;;1.37;;
16075;SDS011;8142;48.242;11.644;2023-05-10T07:13:30;5.50;;;1.60;;
16075;SDS011;8142;48.242;11.644;2023-05-10T07:15:57;1.63;;;1.40;;
16075;SDS011;8142;48.242;11.644;2023-05-10T07:18:24;2.87;;;1.13;;
16075;SDS011;8142;48.242;11.644;2023-05-10T07:20:50;2.37;;;1.30;;
16075;SDS011;8142;48.242;11.644;2023-05-10T07:23:16;1.63;;;1.20;;
16075;SDS011;8142;48.242;11.644;2023-05-10T07:25:45;1.97;;;1.50;;
16075;SDS011;8142;48.242;11.644;2023-05-10T07:28:12;1.37;;;1.20;;
16075;SDS011;8142;48.242;11.644;2023-05-10T07:30:39;1.30;;;1.20;;
16075;SDS011;8142;48.242;11.644;2023-05-10T07:33:05;1.60;;;1.20;;
16075;SDS011;8142;48.242;11.644;2023-05-10T07:35:31;1.73;;;1.23;;
16075;SDS011;8142;48.242;11.644;2023-05-10T07:37:57;3.03;;;1.10;;
16075;SDS011;8142;48.242;11.644;2023-05-10T07:40:22;3.27;;;1.50;;
16075;SDS011;8142;48.242;11.644;2023-05-10T07:42:48;2.20;;;1.20;;
16075;SDS011;8142;48.242;11.644;2023-05-10T07:45:14;1.37;;;1.00;;
16075;SDS011;8142;48.242;11.644;2023-05-10T07:47:40;2.87;;;1.23;;
16075;SDS011;8142;48.242;11.644;2023-05-10T07:50:06;1.47;;;1.10;;
16075;SDS011;8142;48.242;11.644;2023-05-10T07:52:32;1.00;;;1.00;;
16075;SDS011;8142;48.242;11.644;2023-05-10T07:54:58;1.10;;;1.10;;
16075;SDS011;8142;48.242;11.644;2023-05-10T07:57:24;1.57;;;1.10;;
16075;SDS011;8142;48.242;11.644;2023-05-10T07:59:50;1.00;;;1.00;;
16075;SDS011;8142;48.242;11.644;2023-05-10T08:02:16;2.20;;;1.30;;
16075;SDS011;8142;48.242;11.644;2023-05-10T08:04:42;1.17;;;1.13;;
16075;SDS011;8142;48.242;11.644;2023-05-10T08:07:07;1.20;;;1.10;;
16075;SDS011;8142;48.242;11.644;2023-05-10T08:09:33;1.30;;;1.20;;
16075;SDS011;8142;48.242;11.644;2023-05-10T08:11:59;2.43;;;0.90;;
16075;SDS011;8142;48.242;11.644;2023-05-10T08:14:26;1.00;;;1.00;;
16075;SDS011;8142;48.242;11.644;2023-05-10T08:16:53;1.30;;;1.10;;
16075;SDS011;8142;48.242;11.644;2023-05-10T08:19:19;1.10;;;1.00;;
16075;SDS011;8142;48.242;11.644;2023-05-10T08:21:47;1.90;;;0.90;;
16075;SDS011;8142;48.242;11.644;2023-05-10T08:24:13;2.43;;;0.90;;
16075;SDS011;8142;48.242;11.644;2023-05-10T08:26:39;1.80;;;0.90;;
16075;SDS011;8142;48.242;11.644;2023-05-10T08:29:05;0.90;;;0.90;;
16075;SDS011;8142;48.242;11.644;2023-05-10T08:31:31;1.10;;;0.90;;
16075;SDS011;8142;48.242;11.644;2023-05-10T08:33:57;1.20;;;1.10;;
16075;SDS011;8142;48.242;11.644;2023-05-10T08:36:22;1.53;;;1.00;;
16075;SDS011;8142;48.242;11.644;2023-05-10T08:38:53;0.80;;;0.80;;
16075;SDS011;8142;48.242;11.644;2023-05-10T08:41:19;0.80;;;0.80;;
16075;SDS011;8142;48.242;11.644;2023-05-10T08:43:47;2.40;;;1.13;;
16075;SDS011;8142;48.242;11.644;2023-05-10T08:46:15;1.23;;;1.13;;
16075;SDS011;8142;48.242;11.644;2023-05-10T08:48:44;2.93;;;1.30;;
16075;SDS011;8142;48.242;11.644;2023-05-10T08:51:15;1.57;;;1.10;;
16075;SDS011;8142;48.242;11.644;2023-05-10T08:53:44;0.90;;;0.90;;
16075;SDS011;8142;48.242;11.644;2023-05-10T08:56:11;1.03;;;1.00;;
16075;SDS011;8142;48.242;11.644;2023-05-10T08:58:37;1.93;;;0.90;;
16075;SDS011;8142;48.242;11.644;2023-05-10T09:01:04;0.83;;;0.83;;
16075;SDS011;8142;48.242;11.644;2023-05-10T09:03:30;2.43;;;1.07;;
16075;SDS011;8142;48.242;11.644;2023-05-10T09:05:57;1.30;;;1.00;;
16075;SDS011;8142;48.242;11.644;2023-05-10T09:08:24;2.60;;;0.97;;
16075;SDS011;8142;48.242;11.644;2023-05-10T09:10:54;1.03;;;0.93;;
16075;SDS011;8142;48.242;11.644;2023-05-10T09:13:20;1.70;;;1.00;;
16075;SDS011;8142;48.242;11.644;2023-05-10T09:15:48;0.87;;;0.87;;
16075;SDS011;8142;48.242;11.644;2023-05-10T09:18:14;1.33;;;0.80;;
16075;SDS011;8142;48.242;11.644;2023-05-10T09:20:40;0.80;;;0.80;;
16075;SDS011;8142;48.242;11.644;2023-05-10T09:23:06;0.77;;;0.70;;
16075;SDS011;8142;48.242;11.644;2023-05-10T09:25:33;0.90;;;0.90;;
16075;SDS011;8142;48.242;11.644;2023-05-10T09:27:59;1.17;;;1.00;;
16075;SDS011;8142;48.242;11.644;2023-05-10T09:30:26;1.27;;;1.00;;
16075;SDS011;8142;48.242;11.644;2023-05-10T09:32:54;1.87;;;0.90;;
16075;SDS011;8142;48.242;11.644;2023-05-10T09:35:22;3.83;;;1.00;;
16075;SDS011;8142;48.242;11.644;2023-05-10T09:37:50;2.73;;;0.80;;
16075;SDS011;8142;48.242;11.644;2023-05-10T09:40:25;1.47;;;1.00;;
16075;SDS011;8142;48.242;11.644;2023-05-10T09:42:53;1.30;;;0.90;;
16075;SDS011;8142;48.242;11.644;2023-05-10T09:45:28;2.40;;;1.10;;
16075;SDS011;8142;48.242;11.644;2023-05-10T09:47:56;2.20;;;1.10;;
16075;SDS011;8142;48.242;11.644;2023-05-10T09:50:23;1.63;;;1.20;;
16075;SDS011;8142;48.242;11.644;2023-05-10T09:52:50;1.47;;;1.33;;
16075;SDS011;8142;48.242;11.644;2023-05-10T09:55:38;1.47;;;1.20;;
16075;SDS011;8142;48.242;11.644;2023-05-10T09:58:04;2.07;;;1.07;;
16075;SDS011;8142;48.242;11.644;2023-05-10T10:00:35;1.10;;;1.10;;
16075;SDS011;8142;48.242;11.644;2023-05-10T10:03:02;1.30;;;1.20;;
16075;SDS011;8142;48.242;11.644;2023-05-10T10:05:29;1.20;;;1.10;;
16075;SDS011;8142;48.242;11.644;2023-05-10T10:08:00;1.33;;;1.17;;
16075;SDS011;8142;48.242;11.644;2023-05-10T10:10:27;2.37;;;1.33;;
16075;SDS011;8142;48.242;11.644;2023-05-10T10:12:54;1.57;;;1.40;;
16075;SDS011;8142;48.242;11.644;2023-05-10T10:15:21;1.37;;;1.20;;
16075;SDS011;8142;48.242;11.644;2023-05-10T10:17:48;1.40;;;1.20;;
16075;SDS011;8142;48.242;11.644;2023-05-10T10:20:15;1.00;;;1.00;;
16075;SDS011;8142;48.242;11.644;2023-05-10T10:22:42;1.83;;;1.20;;
16075;SDS011;8142;48.242;11.644;2023-05-10T10:25:11;1.13;;;1.03;;
16075;SDS011;8142;48.242;11.644;2023-05-10T10:30:11;2.60;;;1.23;;
16075;SDS011;8142;48.242;11.644;2023-05-10T10:35:33;2.27;;;1.13;;
16075;SDS011;8142;48.242;11.644;2023-05-10T10:38:00;3.33;;;1.20;;
16075;SDS011;8142;48.242;11.644;2023-05-10T10:40:29;1.27;;;1.03;;
16075;SDS011;8142;48.242;11.644;2023-05-10T10:42:57;2.17;;;1.07;;
16075;SDS011;8142;48.242;11.644;2023-05-10T10:45:43;2.13;;;1.40;;
16075;SDS011;8142;48.242;11.644;2023-05-10T10:48:21;2.27;;;1.30;;
16075;SDS011;8142;48.242;11.644;2023-05-10T10:50:55;1.63;;;1.40;;
16075;SDS011;8142;48.242;11.644;2023-05-10T10:53:21;2.83;;;1.53;;
16075;SDS011;8142;48.242;11.644;2023-05-10T10:55:47;2.33;;;1.50;;
16075;SDS011;8142;48.242;11.644;2023-05-10T10:58:32;1.60;;;1.50;;
16075;SDS011;8142;48.242;11.644;2023-05-10T11:01:12;4.60;;;3.60;;
16075;SDS011;8142;48.242;11.644;2023-05-10T11:06:38;1.70;;;1.60;;
16075;SDS011;8142;48.242;11.644;2023-05-10T11:09:06;2.50;;;1.53;;
16075;SDS011;8142;48.242;11.644;2023-05-10T11:11:34;3.63;;;1.87;;
16075;SDS011;8142;48.242;11.644;2023-05-10T11:14:13;2.73;;;1.60;;
16075;SDS011;8142;48.242;11.644;2023-05-10T11:16:42;1.50;;;1.40;;
16075;SDS011;8142;48.242;11.644;2023-05-10T11:19:16;2.10;;;1.40;;
16075;SDS011;8142;48.242;11.644;2023-05-10T11:24:15;1.93;;;1.50;;
16075;SDS011;8142;48.242;11.644;2023-05-10T11:26:46;2.43;;;1.50;;
16075;SDS011;8142;48.242;11.644;2023-05-10T11:29:15;1.70;;;1.33;;
16075;SDS011;8142;48.242;11.644;2023-05-10T11:31:42;2.00;;;1.80;;
16075;SDS011;8142;48.242;11.644;2023-05-10T11:34:12;1.93;;;1.70;;
16075;SDS011;8142;48.242;11.644;2023-05-10T11:36:52;3.00;;;1.70;;
16075;SDS011;8142;48.242;11.644;2023-05-10T11:39:19;1.90;;;1.70;;
16075;SDS011;8142;48.242;11.644;2023-05-10T11:41:47;1.70;;;1.50;;
16075;SDS011;8142;48.242;11.644;2023-05-10T11:44:14;2.67;;;1.70;;
16075;SDS011;8142;48.242;11.644;2023-05-10T11:46:40;2.30;;;1.70;;
16075;SDS011;8142;48.242;11.644;2023-05-10T11:49:06;4.87;;;2.00;;
16075;SDS011;8142;48.242;11.644;2023-05-10T11:51:33;1.87;;;1.60;;
16075;SDS011;8142;48.242;11.644;2023-05-10T11:54:08;1.73;;;1.43;;
16075;SDS011;8142;48.242;11.644;2023-05-10T11:56:36;4.10;;;1.40;;
16075;SDS011;8142;48.242;11.644;2023-05-10T11:59:03;1.50;;;1.40;;
16075;SDS011;8142;48.242;11.644;2023-05-10T12:01:29;4.27;;;1.67;;
16075;SDS011;8142;48.242;11.644;2023-05-10T12:03:56;2.20;;;1.63;;
16075;SDS011;8142;48.242;11.644;2023-05-10T12:06:26;2.07;;;1.60;;
16075;SDS011;8142;48.242;11.644;2023-05-10T12:08:54;3.43;;;1.50;;
16075;SDS011;8142;48.242;11.644;2023-05-10T12:11:20;1.87;;;1.67;;
16075;SDS011;8142;48.242;11.644;2023-05-10T12:13:50;3.50;;;1.70;;
16075;SDS011;8142;48.242;11.644;2023-05-10T12:16:20;2.03;;;1.87;;
16075;SDS011;8142;48.242;11.644;2023-05-10T12:18:48;2.13;;;1.60;;
16075;SDS011;8142;48.242;11.644;2023-05-10T12:21:16;2.20;;;1.90;;
16075;SDS011;8142;48.242;11.644;2023-05-10T12:23:44;3.10;;;1.90;;
16075;SDS011;8142;48.242;11.644;2023-05-10T12:26:24;4.47;;;1.80;;
16075;SDS011;8142;48.242;11.644;2023-05-10T12:28:54;4.07;;;1.70;;
16075;SDS011;8142;48.242;11.644;2023-05-10T12:31:20;1.77;;;1.40;;
16075;SDS011;8142;48.242;11.644;2023-05-10T12:33:46;2.33;;;1.50;;
16075;SDS011;8142;48.242;11.644;2023-05-10T12:36:14;1.30;;;1.20;;
16075;SDS011;8142;48.242;11.644;2023-05-10T12:38:42;1.23;;;1.13;;
16075;SDS011;8142;48.242;11.644;2023-05-10T12:41:09;2.17;;;0.80;;
16075;SDS011;8142;48.242;11.644;2023-05-10T12:43:37;1.20;;;0.67;;
16075;SDS011;8142;48.242;11.644;2023-05-10T12:46:07;0.90;;;0.90;;
16075;SDS011;8142;48.242;11.644;2023-05-10T12:48:42;0.80;;;0.80;;
16075;SDS011;8142;48.242;11.644;2023-05-10T12:51:09;2.33;;;0.97;;
16075;SDS011;8142;48.242;11.644;2023-05-10T12:53:38;1.67;;;0.83;;
16075;SDS011;8142;48.242;11.644;2023-05-10T12:56:05;0.93;;;0.80;;
16075;SDS011;8142;48.242;11.644;2023-05-10T12:58:31;0.93;;;0.73;;
16075;SDS011;8142;48.242;11.644;2023-05-10T13:00:57;1.00;;;0.90;;
16075;SDS011;8142;48.242;11.644;2023-05-10T13:03:24;1.00;;;0.70;;
16075;SDS011;8142;48.242;11.644;2023-05-10T13:05:50;1.10;;;0.97;;
16075;SDS011;8142;48.242;11.644;2023-05-10T13:08:16;1.47;;;0.80;;
16075;SDS011;8142;48.242;11.644;2023-05-10T13:10:42;1.10;;;1.00;;
16075;SDS011;8142;48.242;11.644;2023-05-10T13:13:08;2.50;;;1.23;;
16075;SDS011;8142;48.242;11.644;2023-05-10T13:15:33;2.13;;;1.07;;
16075;SDS011;8142;48.242;11.644;2023-05-10T13:18:00;1.30;;;1.10;;
16075;SDS011;8142;48.242;11.644;2023-05-10T13:20:26;2.90;;;0.93;;
16075;SDS011;8142;48.242;11.644;2023-05-10T13:22:52;2.13;;;1.30;;
16075;SDS011;8142;48.242;11.644;2023-05-10T13:25:18;1.63;;;1.03;;
16075;SDS011;8142;48.242;11.644;2023-05-10T13:27:47;1.20;;;1.00;;
16075;SDS011;8142;48.242;11.644;2023-05-10T13:30:13;1.30;;;1.20;;
16075;SDS011;8142;48.242;11.644;2023-05-10T13:32:39;1.90;;;1.00;;
16075;SDS011;8142;48.242;11.644;2023-05-10T13:35:04;0.93;;;0.80;;
16075;SDS011;8142;48.242;11.644;2023-05-10T13:37:31;1.60;;;1.03;;
16075;SDS011;8142;48.242;11.644;2023-05-10T13:40:00;2.33;;;1.00;;
16075;SDS011;8142;48.242;11.644;2023-05-10T13:42:27;1.33;;;0.90;;
16075;SDS011;8142;48.242;11.644;2023-05-10T13:44:53;1.30;;;1.10;;
16075;SDS011;8142;48.242;11.644;2023-05-10T13:47:19;1.23;;;1.00;;
16075;SDS011;8142;48.242;11.644;2023-05-10T13:49:46;2.27;;;0.90;;
16075;SDS011;8142;48.242;11.644;2023-05-10T13:52:12;1.67;;;1.03;;
16075;SDS011;8142;48.242;11.644;2023-05-10T13:54:38;1.50;;;0.90;;
16075;SDS011;8142;48.242;11.644;2023-05-10T13:57:04;2.00;;;0.90;;
16075;SDS011;8142;48.242;11.644;2023-05-10T13:59:31;1.03;;;0.93;;
16075;SDS011;8142;48.242;11.644;2023-05-10T14:01:58;1.10;;;0.90;;
16075;SDS011;8142;48.242;11.644;2023-05-10T14:04:24;3.80;;;1.23;;
16075;SDS011;8142;48.242;11.644;2023-05-10T14:06:50;1.80;;;0.87;;
16075;SDS011;8142;48.242;11.644;2023-05-10T14:09:16;1.07;;;1.00;;
16075;SDS011;8142;48.242;11.644;2023-05-10T14:11:42;2.73;;;0.90;;
16075;SDS011;8142;48.242;11.644;2023-05-10T14:14:09;1.63;;;1.00;;
16075;SDS011;8142;48.242;11.644;2023-05-10T14:16:35;1.20;;;1.03;;
16075;SDS011;8142;48.242;11.644;2023-05-10T14:19:01;1.30;;;1.20;;
16075;SDS011;8142;48.242;11.644;2023-05-10T14:21:26;2.87;;;1.40;;
16075;SDS011;8142;48.242;11.644;2023-05-10T14:23:54;2.20;;;1.30;;
16075;SDS011;8142;48.242;11.644;2023-05-10T14:26:20;2.33;;;1.30;;
16075;SDS011;8142;48.242;11.644;2023-05-10T14:28:47;4.17;;;1.40;;
16075;SDS011;8142;48.242;11.644;2023-05-10T14:31:13;2.27;;;1.43;;
16075;SDS011;8142;48.242;11.644;2023-05-10T14:33:39;4.27;;;1.47;;
16075;SDS011;8142;48.242;11.644;2023-05-10T14:36:06;1.70;;;1.60;;
16075;SDS011;8142;48.242;11.644;2023-05-10T14:38:32;3.50;;;1.90;;
16075;SDS011;8142;48.242;11.644;2023-05-10T14:40:58;1.63;;;1.53;;
16075;SDS011;8142;48.242;11.644;2023-05-10T14:43:24;1.83;;;1.60;;
16075;SDS011;8142;48.242;11.644;2023-05-10T14:45:50;1.63;;;1.33;;
16075;SDS011;8142;48.242;11.644;2023-05-10T14:48:17;2.13;;;1.60;;
16075;SDS011;8142;48.242;11.644;2023-05-10T14:50:43;1.50;;;1.40;;
16075;SDS011;8142;48.242;11.644;2023-05-10T14:53:11;2.90;;;1.50;;
16075;SDS011;8142;48.242;11.644;2023-05-10T14:55:37;1.40;;;1.30;;
16075;SDS011;8142;48.242;11.644;2023-05-10T14:58:03;1.53;;;1.43;;
16075;SDS011;8142;48.242;11.644;2023-05-10T15:00:29;1.97;;;1.23;;
16075;SDS011;8142;48.242;11.644;2023-05-10T15:02:56;2.73;;;1.30;;
16075;SDS011;8142;48.242;11.644;2023-05-10T15:05:22;3.63;;;1.27;;
16075;SDS011;8142;48.242;11.644;2023-05-10T15:07:48;1.30;;;1.20;;
16075;SDS011;8142;48.242;11.644;2023-05-10T15:10:14;1.00;;;0.90;;
16075;SDS011;8142;48.242;11.644;2023-05-10T15:12:40;1.67;;;1.17;;
16075;SDS011;8142;48.242;11.644;2023-05-10T15:15:06;2.03;;;1.07;;